Aviation Digital Data Service (ADDS)

Output produced by METARs form (2212 UTC 05 February 2016)
found at http://aviationweather.gov/adds/metars/
 
KSAN 052105Z 0521/0624 31009KT P6SM FEW250 
     FM060100 VRB04KT P6SM SKC 
     FM062100 30009KT P6SM SKC